createdAt,value
2023-05-21T00:00:31.221Z,15.35
2023-05-21T00:02:59.429Z,16.20
2023-05-21T00:05:27.026Z,15.18
2023-05-21T00:07:55.221Z,13.57
2023-05-21T00:10:22.846Z,14.93
2023-05-21T00:12:50.276Z,16.02
2023-05-21T00:15:17.760Z,15.77
2023-05-21T00:17:46.195Z,15.05
2023-05-21T00:20:13.613Z,13.68
2023-05-21T00:22:42.622Z,18.27
2023-05-21T00:25:11.458Z,17.23
2023-05-21T00:27:38.889Z,18.17
2023-05-21T00:30:06.967Z,17.70
2023-05-21T00:32:34.389Z,15.10
2023-05-21T00:35:01.853Z,15.30
2023-05-21T00:37:33.002Z,13.50
2023-05-21T00:40:08.963Z,14.93
2023-05-21T00:42:39.802Z,16.50
2023-05-21T00:45:08.844Z,17.67
2023-05-21T00:47:36.474Z,15.98
2023-05-21T00:50:04.918Z,16.02
2023-05-21T00:52:32.528Z,17.27
2023-05-21T00:54:59.923Z,13.82
2023-05-21T00:57:27.708Z,15.05
2023-05-21T00:59:55.130Z,15.50
2023-05-21T01:02:24.446Z,13.73
2023-05-21T01:04:56.317Z,15.05
2023-05-21T01:07:23.686Z,14.65
2023-05-21T01:09:51.268Z,16.15
2023-05-21T01:12:19.583Z,17.52
2023-05-21T01:14:48.264Z,16.50
2023-05-21T01:17:16.508Z,14.27
2023-05-21T01:19:44.800Z,14.73
2023-05-21T01:22:14.464Z,14.52
2023-05-21T01:24:47.749Z,17.70
2023-05-21T01:27:15.128Z,16.20
2023-05-21T01:29:42.652Z,16.83
2023-05-21T01:32:31.177Z,16.15
2023-05-21T01:35:09.985Z,14.38
2023-05-21T01:37:45.993Z,15.32
2023-05-21T01:40:36.126Z,14.73
2023-05-21T01:43:05.201Z,17.38
2023-05-21T01:45:36.953Z,16.17
2023-05-21T01:48:06.248Z,15.20
2023-05-21T01:50:37.092Z,16.38
2023-05-21T01:53:06.124Z,15.18
2023-05-21T01:55:34.206Z,15.43
2023-05-21T01:58:02.665Z,15.75
2023-05-21T02:00:32.462Z,15.35
2023-05-21T02:02:59.913Z,13.82
2023-05-21T02:05:27.334Z,14.15
2023-05-21T02:07:55.021Z,14.73
2023-05-21T02:10:23.336Z,15.82
2023-05-21T02:12:51.528Z,17.02
2023-05-21T02:15:19.377Z,18.38
2023-05-21T02:17:47.221Z,14.25
2023-05-21T02:20:14.776Z,15.63
2023-05-21T02:22:44.784Z,14.82
2023-05-21T02:25:13.516Z,14.32
2023-05-21T02:27:42.988Z,16.02
2023-05-21T02:30:12.527Z,17.38
2023-05-21T02:32:42.820Z,16.70
2023-05-21T02:35:12.048Z,16.65
2023-05-21T02:37:46.037Z,17.65
2023-05-21T02:40:13.755Z,14.02
2023-05-21T02:42:41.755Z,17.23
2023-05-21T02:45:13.322Z,16.33
2023-05-21T02:47:43.105Z,17.58
2023-05-21T02:50:10.729Z,17.35
2023-05-21T02:52:54.024Z,16.00
2023-05-21T02:55:21.452Z,15.63
2023-05-21T02:57:48.860Z,15.35
2023-05-21T03:00:16.793Z,15.88
2023-05-21T03:02:44.959Z,16.58
2023-05-21T03:05:12.473Z,16.58
2023-05-21T03:07:39.788Z,16.98
2023-05-21T03:10:07.756Z,16.55
2023-05-21T03:12:36.633Z,14.90
2023-05-21T03:15:04.489Z,17.88
2023-05-21T03:17:32.359Z,16.75
2023-05-21T03:19:59.820Z,21.85
2023-05-21T03:22:27.049Z,15.85
2023-05-21T03:24:54.579Z,17.42
2023-05-21T03:27:22.128Z,16.33
2023-05-21T03:29:50.197Z,18.63
2023-05-21T03:32:17.865Z,16.58
2023-05-21T03:34:47.453Z,17.13
2023-05-21T03:37:16.277Z,21.42
2023-05-21T03:39:43.743Z,16.70
2023-05-21T03:42:11.316Z,18.40
2023-05-21T03:44:51.671Z,16.77
2023-05-21T03:47:31.109Z,18.75
2023-05-21T03:49:59.472Z,17.38
2023-05-21T03:52:27.669Z,17.60
2023-05-21T03:54:55.577Z,19.58
2023-05-21T03:57:22.878Z,18.88
2023-05-21T03:59:50.202Z,22.27
2023-05-21T04:02:17.786Z,18.23
2023-05-21T04:04:45.832Z,17.98
2023-05-21T04:07:15.482Z,17.85
2023-05-21T04:09:42.985Z,19.02
2023-05-21T04:12:10.292Z,17.35
2023-05-21T04:14:38.153Z,16.63
2023-05-21T04:17:05.802Z,19.08
2023-05-21T04:19:33.884Z,17.40
2023-05-21T04:22:03.521Z,17.60
2023-05-21T04:24:31.672Z,19.20
2023-05-21T04:27:07.436Z,18.75
2023-05-21T04:29:34.781Z,22.92
2023-05-21T04:32:02.194Z,17.05
2023-05-21T04:34:30.068Z,18.20
2023-05-21T04:36:57.343Z,16.77
2023-05-21T04:39:25.407Z,18.00
2023-05-21T04:41:54.889Z,19.45
2023-05-21T04:44:22.979Z,19.75
2023-05-21T04:46:50.764Z,17.02
2023-05-21T04:49:18.501Z,18.70
2023-05-21T04:51:47.090Z,20.10
2023-05-21T04:54:14.425Z,21.00
2023-05-21T04:56:41.773Z,19.20
2023-05-21T04:59:09.027Z,18.83
2023-05-21T05:01:38.647Z,17.65
2023-05-21T05:04:06.552Z,19.63
2023-05-21T05:06:33.836Z,18.45
2023-05-21T05:09:01.183Z,18.33
2023-05-21T05:11:28.571Z,18.30
2023-05-21T05:13:56.443Z,18.23
2023-05-21T05:16:26.045Z,18.38
2023-05-21T05:18:56.496Z,17.55
2023-05-21T05:21:24.236Z,18.73
2023-05-21T05:23:51.888Z,19.23
2023-05-21T05:26:23.043Z,17.08
2023-05-21T05:28:50.456Z,18.52
2023-05-21T05:31:18.590Z,16.15
2023-05-21T05:33:46.256Z,18.00
2023-05-21T05:36:13.533Z,14.80
2023-05-21T05:38:40.936Z,17.90
2023-05-21T05:41:08.290Z,16.45
2023-05-21T05:43:35.704Z,17.83
2023-05-21T05:46:03.887Z,15.00
2023-05-21T05:48:31.357Z,16.17
2023-05-21T05:50:59.428Z,17.20
2023-05-21T05:53:27.211Z,16.45
2023-05-21T05:55:54.984Z,17.73
2023-05-21T05:58:22.395Z,21.08
2023-05-21T06:00:57.498Z,17.60
2023-05-21T06:03:26.985Z,18.17
2023-05-21T06:05:54.398Z,17.17
2023-05-21T06:08:22.132Z,18.05
2023-05-21T06:10:49.552Z,15.27
2023-05-21T06:13:16.923Z,17.42
2023-05-21T06:15:44.562Z,19.15
2023-05-21T06:18:11.940Z,17.55
2023-05-21T06:20:39.454Z,18.83
2023-05-21T06:23:09.102Z,14.95
2023-05-21T06:25:37.181Z,15.70
2023-05-21T06:28:04.976Z,16.20
2023-05-21T06:30:33.433Z,19.20
2023-05-21T06:33:01.283Z,17.40
2023-05-21T06:35:28.588Z,17.48
2023-05-21T06:37:55.850Z,16.55
2023-05-21T06:40:23.434Z,15.55
2023-05-21T06:42:56.236Z,19.45
2023-05-21T06:45:32.386Z,14.68
2023-05-21T06:48:05.024Z,16.05
2023-05-21T06:50:32.327Z,16.13
2023-05-21T06:53:01.620Z,14.55
2023-05-21T06:55:30.172Z,14.57
2023-05-21T06:58:13.462Z,15.70
2023-05-21T07:00:41.496Z,15.60
2023-05-21T07:03:09.066Z,14.32
2023-05-21T07:05:37.023Z,14.18
2023-05-21T07:08:05.781Z,14.30
2023-05-21T07:10:33.108Z,15.80
2023-05-21T07:13:00.368Z,17.25
2023-05-21T07:15:28.453Z,18.63
2023-05-21T07:17:57.174Z,14.32
2023-05-21T07:20:24.720Z,15.25
2023-05-21T07:22:54.835Z,15.90
2023-05-21T07:25:22.132Z,16.20
2023-05-21T07:27:49.430Z,18.13
2023-05-21T07:30:16.887Z,14.95
2023-05-21T07:32:44.314Z,15.85
2023-05-21T07:35:11.646Z,14.75
2023-05-21T07:37:39.118Z,16.48
2023-05-21T07:40:07.924Z,14.13
2023-05-21T07:42:36.250Z,14.25
2023-05-21T07:45:04.301Z,14.18
2023-05-21T07:47:36.542Z,16.77
2023-05-21T07:50:04.053Z,15.40
2023-05-21T07:52:32.336Z,17.52
2023-05-21T07:55:01.954Z,15.43
2023-05-21T07:57:32.151Z,16.55
2023-05-21T08:00:06.898Z,14.35
2023-05-21T08:02:43.263Z,17.52
2023-05-21T08:05:13.396Z,15.57
2023-05-21T08:07:40.949Z,14.43
2023-05-21T08:10:09.236Z,13.55
2023-05-21T08:12:36.509Z,13.50
2023-05-21T08:15:05.616Z,16.00
2023-05-21T08:17:35.686Z,13.65
2023-05-21T08:20:04.465Z,12.90
2023-05-21T08:22:32.714Z,13.75
2023-05-21T08:25:01.101Z,14.90
2023-05-21T08:27:28.541Z,13.93
2023-05-21T08:29:56.256Z,14.65
2023-05-21T08:32:23.863Z,14.00
2023-05-21T08:34:51.229Z,12.75
2023-05-21T08:37:36.984Z,15.18
2023-05-21T08:40:15.273Z,14.88
2023-05-21T08:42:49.204Z,15.20
2023-05-21T08:45:22.928Z,14.38
2023-05-21T08:47:57.827Z,15.60
2023-05-21T08:50:28.158Z,13.07
2023-05-21T08:53:04.036Z,14.52
2023-05-21T08:55:39.133Z,13.38
2023-05-21T08:58:06.677Z,13.38
2023-05-21T09:00:33.950Z,12.88
2023-05-21T09:03:07.793Z,13.57
2023-05-21T09:05:36.084Z,14.05
2023-05-21T09:08:07.612Z,15.98
2023-05-21T09:10:51.005Z,11.20
2023-05-21T09:13:21.111Z,13.95
2023-05-21T09:15:51.762Z,12.50
2023-05-21T09:18:20.791Z,12.65
2023-05-21T09:20:52.543Z,13.05
2023-05-21T09:23:20.499Z,15.45
2023-05-21T09:25:49.560Z,13.55
2023-05-21T09:28:25.568Z,12.95
2023-05-21T09:30:54.415Z,14.52
2023-05-21T09:33:29.922Z,13.25
2023-05-21T09:35:57.804Z,13.57
2023-05-21T09:38:27.497Z,12.73
2023-05-21T09:40:57.849Z,11.50
2023-05-21T09:43:26.490Z,12.95
2023-05-21T09:45:58.364Z,16.08
2023-05-21T09:48:35.203Z,13.35
2023-05-21T09:51:17.160Z,13.18
2023-05-21T09:53:44.403Z,13.20
2023-05-21T09:56:11.692Z,15.00
2023-05-21T09:58:39.772Z,12.73
2023-05-21T10:01:08.619Z,13.32
2023-05-21T10:03:40.025Z,13.18
2023-05-21T10:06:12.310Z,13.00
2023-05-21T10:08:45.071Z,14.02
2023-05-21T10:11:12.649Z,13.65
2023-05-21T10:13:48.990Z,13.70
2023-05-21T10:16:16.539Z,15.18
2023-05-21T10:18:47.017Z,13.98
2023-05-21T10:21:15.105Z,12.25
2023-05-21T10:23:46.974Z,13.65
2023-05-21T10:26:15.726Z,14.25
2023-05-21T10:28:44.466Z,13.27
2023-05-21T10:31:12.528Z,15.57
2023-05-21T10:33:42.346Z,16.02
2023-05-21T10:36:10.566Z,12.70
2023-05-21T10:38:39.278Z,13.65
2023-05-21T10:41:07.816Z,13.65
2023-05-21T10:43:41.039Z,13.82
2023-05-21T10:46:11.680Z,14.10
2023-05-21T10:48:42.204Z,15.40
2023-05-21T10:51:21.291Z,12.52
2023-05-21T10:54:21.296Z,13.95
2023-05-21T10:56:51.528Z,12.85
2023-05-21T10:59:29.482Z,12.43
2023-05-21T11:01:57.827Z,13.00
2023-05-21T11:04:28.924Z,13.18
2023-05-21T11:06:58.546Z,14.40
2023-05-21T11:09:27.122Z,11.70
2023-05-21T11:11:58.491Z,15.95
2023-05-21T11:16:55.034Z,13.02
2023-05-21T11:19:22.560Z,11.45
2023-05-21T11:21:55.306Z,13.57
2023-05-21T11:24:25.688Z,12.63
2023-05-21T11:26:58.591Z,10.57
2023-05-21T11:29:40.616Z,12.57
2023-05-21T11:32:09.402Z,10.35
2023-05-21T11:34:40.935Z,11.65
2023-05-21T11:37:37.483Z,10.07
2023-05-21T11:40:19.523Z,9.68
2023-05-21T11:42:52.838Z,12.23
2023-05-21T11:45:25.246Z,10.05
2023-05-21T11:47:54.762Z,12.02
2023-05-21T11:50:22.336Z,10.73
2023-05-21T11:52:51.101Z,11.90
2023-05-21T11:55:26.112Z,10.48
2023-05-21T11:57:55.414Z,10.50
2023-05-21T12:00:24.678Z,10.02
2023-05-21T12:02:52.981Z,9.93
2023-05-21T12:05:21.245Z,11.57
2023-05-21T12:07:50.679Z,13.27
2023-05-21T12:10:22.387Z,10.77
2023-05-21T12:12:56.418Z,10.02
2023-05-21T12:15:26.601Z,9.60
2023-05-21T12:17:55.126Z,10.30
2023-05-21T12:20:22.863Z,9.75
2023-05-21T12:22:50.691Z,16.52
2023-05-21T12:25:20.316Z,10.35
2023-05-21T12:27:50.656Z,9.32
2023-05-21T12:30:18.185Z,10.88
2023-05-21T12:32:45.697Z,11.32
2023-05-21T12:35:25.425Z,9.07
2023-05-21T12:37:53.536Z,12.95
2023-05-21T12:40:21.184Z,10.05
2023-05-21T12:42:49.556Z,9.60
2023-05-21T12:45:18.859Z,10.70
2023-05-21T12:47:50.443Z,10.90
2023-05-21T12:50:21.272Z,9.10
2023-05-21T12:52:48.866Z,9.02
2023-05-21T12:55:17.309Z,10.85
2023-05-21T12:57:44.699Z,10.23
2023-05-21T13:00:12.870Z,10.02
2023-05-21T13:02:45.965Z,9.35
2023-05-21T13:05:18.143Z,10.25
2023-05-21T13:07:47.502Z,10.27
2023-05-21T13:10:17.066Z,11.02
2023-05-21T13:12:45.007Z,9.38
2023-05-21T13:15:12.517Z,9.82
2023-05-21T13:17:40.095Z,9.50
2023-05-21T13:20:21.888Z,9.70
2023-05-21T13:22:52.025Z,9.20
2023-05-21T13:25:24.881Z,9.43
2023-05-21T13:27:53.334Z,9.45
2023-05-21T13:30:22.055Z,8.93
2023-05-21T13:32:50.160Z,9.80
2023-05-21T13:35:17.842Z,9.52
2023-05-21T13:37:45.611Z,9.90
2023-05-21T13:40:15.429Z,9.00
2023-05-21T13:42:45.643Z,9.00
2023-05-21T13:45:14.964Z,10.07
2023-05-21T13:47:44.072Z,10.02
2023-05-21T13:50:12.513Z,8.60
2023-05-21T13:52:40.634Z,9.20
2023-05-21T13:55:08.508Z,11.77
2023-05-21T13:57:35.901Z,9.40
2023-05-21T14:00:04.016Z,11.57
2023-05-21T14:02:35.597Z,9.27
2023-05-21T14:05:02.965Z,10.18
2023-05-21T14:07:31.110Z,8.98
2023-05-21T14:09:58.516Z,9.63
2023-05-21T14:12:27.055Z,8.95
2023-05-21T14:14:54.347Z,9.25
2023-05-21T14:17:21.637Z,9.43
2023-05-21T14:19:49.138Z,9.80
2023-05-21T14:22:16.711Z,8.35
2023-05-21T14:24:43.957Z,9.00
2023-05-21T14:27:13.197Z,8.02
2023-05-21T14:29:41.995Z,8.20
2023-05-21T14:32:09.473Z,8.48
2023-05-21T14:34:38.628Z,8.60
2023-05-21T14:37:06.454Z,8.93
2023-05-21T14:39:33.837Z,8.43
2023-05-21T14:42:03.847Z,9.02
2023-05-21T14:44:31.774Z,8.88
2023-05-21T14:46:59.857Z,8.63
2023-05-21T14:49:27.906Z,8.52
2023-05-21T14:51:55.262Z,9.07
2023-05-21T14:54:22.793Z,8.10
2023-05-21T14:56:50.650Z,8.80
2023-05-21T14:59:18.174Z,9.75
2023-05-21T15:01:45.695Z,8.60
2023-05-21T15:04:13.262Z,7.75
2023-05-21T15:06:41.361Z,9.25
2023-05-21T15:09:08.779Z,8.52
2023-05-21T15:11:36.304Z,8.13
2023-05-21T15:14:03.615Z,7.85
2023-05-21T15:16:31.620Z,8.18
2023-05-21T15:18:59.022Z,8.27
2023-05-21T15:21:28.070Z,8.15
2023-05-21T15:23:56.272Z,8.43
2023-05-21T15:26:25.826Z,8.43
2023-05-21T15:28:53.813Z,8.50
2023-05-21T15:31:22.821Z,8.23
2023-05-21T15:33:51.124Z,8.18
2023-05-21T15:36:18.993Z,8.32
2023-05-21T15:38:47.890Z,8.20
2023-05-21T15:41:16.112Z,8.50
2023-05-21T15:43:45.302Z,8.43
2023-05-21T15:46:13.232Z,8.75
2023-05-21T15:48:41.265Z,8.25
2023-05-21T15:51:09.694Z,8.73
2023-05-21T15:53:39.299Z,8.70
2023-05-21T15:56:09.252Z,8.68
2023-05-21T15:58:37.409Z,8.65
2023-05-21T16:01:08.173Z,9.00
2023-05-21T16:03:37.900Z,8.68
2023-05-21T16:06:08.302Z,9.20
2023-05-21T16:11:06.072Z,9.48
2023-05-21T16:13:34.198Z,10.95
2023-05-21T16:16:02.335Z,9.63
2023-05-21T16:18:30.290Z,9.18
2023-05-21T16:20:58.115Z,8.70
2023-05-21T16:23:27.361Z,10.05
2023-05-21T16:25:55.050Z,8.90
2023-05-21T16:28:24.474Z,12.80
2023-05-21T16:30:52.656Z,8.57
2023-05-21T16:33:23.614Z,9.07
2023-05-21T16:38:20.204Z,9.50
2023-05-21T16:40:49.386Z,8.85
2023-05-21T16:43:17.367Z,10.25
2023-05-21T16:45:46.660Z,9.50
2023-05-21T16:48:14.495Z,11.93
2023-05-21T16:50:42.544Z,8.60
2023-05-21T16:53:11.708Z,11.20
2023-05-21T16:55:43.457Z,9.27
2023-05-21T16:58:13.718Z,9.82
2023-05-21T17:00:41.312Z,9.50
2023-05-21T17:03:09.239Z,11.25
2023-05-21T17:05:37.089Z,13.02
2023-05-21T17:08:05.429Z,9.80
2023-05-21T17:10:34.425Z,10.15
2023-05-21T17:13:13.594Z,9.90
2023-05-21T17:15:48.737Z,9.63
2023-05-21T17:18:16.364Z,10.25
2023-05-21T17:20:44.094Z,11.18
2023-05-21T17:23:12.732Z,9.77
2023-05-21T17:25:40.982Z,9.30
2023-05-21T17:28:08.767Z,15.98
2023-05-21T17:30:36.271Z,9.98
2023-05-21T17:33:04.203Z,9.88
2023-05-21T17:35:31.976Z,9.07
2023-05-21T17:37:59.520Z,10.20
2023-05-21T17:40:26.996Z,11.23
2023-05-21T17:42:54.628Z,10.85
2023-05-21T17:45:22.589Z,12.43
2023-05-21T17:47:50.301Z,12.18
2023-05-21T17:50:17.709Z,11.07
2023-05-21T17:52:45.139Z,11.38
2023-05-21T17:55:12.694Z,10.57
2023-05-21T17:57:40.149Z,10.63
2023-05-21T18:00:08.690Z,13.32
2023-05-21T18:02:42.359Z,13.07
2023-05-21T18:05:10.001Z,10.82
2023-05-21T18:07:38.411Z,13.70
2023-05-21T18:10:06.605Z,11.75
2023-05-21T18:12:34.100Z,10.80
2023-05-21T18:15:03.318Z,10.95
2023-05-21T18:17:30.886Z,11.20
2023-05-21T18:19:58.405Z,10.45
2023-05-21T18:22:25.665Z,12.55
2023-05-21T18:24:53.183Z,11.85
2023-05-21T18:27:20.629Z,10.77
2023-05-21T18:29:49.270Z,14.38
2023-05-21T18:32:16.863Z,12.45
2023-05-21T18:34:44.262Z,13.32
2023-05-21T18:37:11.727Z,11.63
2023-05-21T18:39:39.097Z,11.95
2023-05-21T18:42:13.610Z,12.70
2023-05-21T18:44:41.973Z,13.57
2023-05-21T18:47:09.482Z,12.35
2023-05-21T18:49:36.917Z,15.85
2023-05-21T18:52:05.209Z,14.43
2023-05-21T18:54:32.574Z,14.45
2023-05-21T18:57:00.824Z,12.75
2023-05-21T18:59:29.091Z,15.10
2023-05-21T19:01:56.693Z,14.27
2023-05-21T19:04:24.160Z,13.75
2023-05-21T19:06:51.511Z,14.05
2023-05-21T19:09:18.992Z,14.73
2023-05-21T19:11:46.815Z,15.50
2023-05-21T19:14:14.262Z,12.82
2023-05-21T19:16:41.827Z,15.00
2023-05-21T19:19:09.395Z,13.45
2023-05-21T19:21:36.908Z,13.50
2023-05-21T19:24:05.862Z,13.40
2023-05-21T19:26:33.596Z,13.82
2023-05-21T19:29:01.078Z,14.15
2023-05-21T19:31:28.716Z,13.57
2023-05-21T19:33:56.184Z,14.18
2023-05-21T19:36:25.202Z,13.52
2023-05-21T19:38:52.953Z,24.55
2023-05-21T19:41:22.055Z,25.08
2023-05-21T19:43:49.427Z,24.98
2023-05-21T19:46:20.045Z,17.40
2023-05-21T19:48:48.783Z,16.08
2023-05-21T19:51:16.816Z,14.23
2023-05-21T19:53:44.371Z,14.82
2023-05-21T19:56:11.851Z,15.18
2023-05-21T19:58:41.073Z,13.52
2023-05-21T20:01:08.526Z,13.40
2023-05-21T20:03:37.156Z,13.85
2023-05-21T20:06:04.864Z,17.52
2023-05-21T20:08:32.333Z,13.10
2023-05-21T20:10:59.878Z,14.40
2023-05-21T20:13:27.357Z,14.55
2023-05-21T20:15:54.788Z,16.42
2023-05-21T20:18:22.170Z,13.88
2023-05-21T20:20:49.519Z,16.30
2023-05-21T20:23:17.119Z,13.68
2023-05-21T20:25:45.005Z,15.52
2023-05-21T20:28:12.583Z,14.15
2023-05-21T20:30:54.495Z,13.80
2023-05-21T20:35:49.294Z,12.82
2023-05-21T20:38:17.458Z,12.27
2023-05-21T20:40:45.627Z,14.20
2023-05-21T20:43:14.039Z,19.33
2023-05-21T20:45:42.151Z,14.18
2023-05-21T20:48:09.962Z,14.68
2023-05-21T20:50:37.860Z,14.02
2023-05-21T20:53:05.531Z,13.00
2023-05-21T20:55:35.047Z,14.30
2023-05-21T20:58:03.427Z,12.70
2023-05-21T21:00:33.784Z,15.25
2023-05-21T21:03:02.298Z,13.57
2023-05-21T21:05:29.618Z,13.85
2023-05-21T21:07:57.044Z,13.32
2023-05-21T21:10:24.441Z,13.20
2023-05-21T21:12:51.788Z,12.60
2023-05-21T21:15:19.101Z,15.73
2023-05-21T21:17:46.739Z,14.23
2023-05-21T21:20:17.572Z,15.18
2023-05-21T21:22:45.574Z,13.55
2023-05-21T21:25:14.284Z,13.60
2023-05-21T21:27:42.771Z,18.52
2023-05-21T21:30:10.570Z,23.20
2023-05-21T21:32:38.112Z,22.52
2023-05-21T21:35:06.330Z,17.63
2023-05-21T21:37:33.824Z,17.10
2023-05-21T21:40:01.283Z,14.57
2023-05-21T21:42:28.560Z,14.80
2023-05-21T21:44:55.907Z,13.65
2023-05-21T21:47:23.464Z,15.68
2023-05-21T21:49:50.778Z,15.55
2023-05-21T21:52:19.085Z,16.38
2023-05-21T21:54:46.401Z,14.25
2023-05-21T21:57:13.720Z,14.35
2023-05-21T21:59:41.276Z,14.93
2023-05-21T22:02:08.648Z,14.05
2023-05-21T22:04:36.211Z,14.55
2023-05-21T22:07:03.703Z,14.63
2023-05-21T22:09:31.142Z,19.60
2023-05-21T22:11:58.842Z,15.38
2023-05-21T22:14:26.069Z,17.35
2023-05-21T22:16:53.501Z,14.50
2023-05-21T22:19:22.837Z,16.27
2023-05-21T22:21:50.537Z,13.65
2023-05-21T22:24:30.992Z,13.85
2023-05-21T22:26:59.576Z,14.20
2023-05-21T22:29:28.308Z,14.80
2023-05-21T22:31:56.006Z,14.80
2023-05-21T22:34:25.409Z,20.30
2023-05-21T22:36:52.899Z,16.13
2023-05-21T22:39:20.314Z,16.00
2023-05-21T22:41:47.817Z,15.60
2023-05-21T22:44:15.387Z,15.30
2023-05-21T22:46:44.047Z,15.15
2023-05-21T22:49:11.415Z,14.45
2023-05-21T22:51:39.394Z,17.20
2023-05-21T22:54:06.852Z,13.93
2023-05-21T22:56:34.264Z,14.13
2023-05-21T22:59:01.542Z,14.88
2023-05-21T23:01:29.496Z,13.50
2023-05-21T23:03:56.867Z,14.30
2023-05-21T23:06:24.278Z,15.55
2023-05-21T23:08:51.539Z,14.20
2023-05-21T23:11:18.889Z,14.13
2023-05-21T23:13:46.192Z,16.73
2023-05-21T23:16:15.062Z,17.50
2023-05-21T23:18:42.634Z,15.15
2023-05-21T23:21:09.945Z,13.68
2023-05-21T23:23:37.302Z,14.85
2023-05-21T23:26:04.561Z,13.35
2023-05-21T23:28:31.897Z,15.95
2023-05-21T23:30:59.720Z,14.30
2023-05-21T23:33:27.433Z,14.57
2023-05-21T23:35:54.747Z,16.10
2023-05-21T23:38:22.219Z,15.40
2023-05-21T23:40:49.550Z,14.32
2023-05-21T23:43:17.529Z,14.77
2023-05-21T23:45:44.902Z,13.48
2023-05-21T23:48:12.438Z,14.65
2023-05-21T23:50:40.008Z,14.50
2023-05-21T23:53:07.630Z,16.75
2023-05-21T23:55:34.941Z,15.13
2023-05-21T23:58:03.963Z,15.35
